Empire, Michigan
Current Conditions -  °F | °C
As of 3:34 AM on Monday 24 Nov 2014 (Local Time) from KFKS Reporting Station
Light Rain Light Rain  
Wind Chill: 46°   Ceiling: 1400
Heat Index: 46°   Visibility: 1.7mi
Dew Point: 46°   Wind: 0mph
Humidity: 98%   Direction: NA
Pressure: 29"   Gusts: NA
Location:  44.81°N, 86.06°W
Report Text: KFKS 240834Z AUTO 00000KT 1 3/4SM -RA OVC014 08/08 A2900 RMK AO2 T00780075
Loading
Personal Weather Stations






























Interactive Weather Map New forecast layout! Learn more

10-Day Weather Forecast

Advertisements
Track Severe Weather on mobile